createdAt,value
2022-12-15T00:00:35.026Z,12.55
2022-12-15T00:01:55.353Z,11.13
2022-12-15T00:03:15.917Z,12.27
2022-12-15T00:04:36.197Z,12.88
2022-12-15T00:05:56.652Z,12.33
2022-12-15T00:07:17.188Z,12.15
2022-12-15T00:08:37.648Z,12.52
2022-12-15T00:09:58.063Z,12.38
2022-12-15T00:11:21.103Z,12.77
2022-12-15T00:12:41.427Z,13.13
2022-12-15T00:14:02.350Z,12.35
2022-12-15T00:15:23.391Z,12.38
2022-12-15T00:16:43.802Z,12.30
2022-12-15T00:18:04.314Z,12.43
2022-12-15T00:19:24.687Z,12.60
2022-12-15T00:20:44.990Z,11.75
2022-12-15T00:22:05.614Z,12.55
2022-12-15T00:23:30.945Z,12.00
2022-12-15T00:24:51.547Z,12.23
2022-12-15T00:26:11.951Z,12.05
2022-12-15T00:27:32.259Z,12.25
2022-12-15T00:28:52.724Z,11.57
2022-12-15T00:30:13.278Z,12.25
2022-12-15T00:31:33.766Z,12.52
2022-12-15T00:32:54.148Z,12.27
2022-12-15T00:34:14.617Z,12.80
2022-12-15T00:35:35.116Z,12.25
2022-12-15T00:36:55.461Z,12.35
2022-12-15T00:38:16.113Z,11.40
2022-12-15T00:39:17.882Z,11.75
2022-12-15T00:40:19.678Z,12.20
2022-12-15T00:41:21.488Z,12.65
2022-12-15T00:42:23.221Z,12.70
2022-12-15T00:43:29.836Z,12.55
2022-12-15T00:44:31.875Z,12.43
2022-12-15T00:45:52.373Z,12.50
2022-12-15T00:46:57.231Z,12.25
2022-12-15T00:47:59.056Z,12.80
2022-12-15T00:49:01.403Z,12.35
2022-12-15T00:50:22.194Z,12.57
2022-12-15T00:51:42.876Z,11.70
2022-12-15T00:53:03.450Z,11.48
2022-12-15T00:54:23.937Z,11.40
2022-12-15T00:55:44.492Z,11.00
2022-12-15T00:57:04.956Z,11.63
2022-12-15T00:58:25.419Z,11.57
2022-12-15T00:59:45.921Z,12.43
2022-12-15T01:01:06.419Z,11.30
2022-12-15T01:02:26.934Z,10.80
2022-12-15T01:03:47.633Z,11.43
2022-12-15T01:05:07.919Z,11.50
2022-12-15T01:06:31.408Z,11.30
2022-12-15T01:07:52.286Z,11.35
2022-12-15T01:09:12.792Z,10.18
2022-12-15T01:10:33.382Z,12.70
2022-12-15T01:11:53.924Z,10.88
2022-12-15T01:13:14.455Z,11.25
2022-12-15T01:14:34.969Z,10.40
2022-12-15T01:15:56.454Z,10.65
2022-12-15T01:17:17.077Z,11.77
2022-12-15T01:18:37.564Z,12.23
2022-12-15T01:19:58.128Z,10.70
2022-12-15T01:21:02.611Z,10.27
2022-12-15T01:22:06.603Z,11.33
2022-12-15T01:23:08.423Z,10.18
2022-12-15T01:24:10.158Z,11.45
2022-12-15T01:25:12.623Z,10.95
2022-12-15T01:26:14.392Z,12.02
2022-12-15T01:27:16.418Z,11.50
2022-12-15T01:28:19.310Z,12.15
2022-12-15T01:29:23.394Z,11.65
2022-12-15T01:30:26.907Z,12.15
2022-12-15T01:31:28.663Z,11.60
2022-12-15T01:32:30.517Z,11.20
2022-12-15T01:33:34.640Z,13.65
2022-12-15T01:34:36.412Z,12.25
2022-12-15T01:35:38.847Z,12.23
2022-12-15T01:36:41.430Z,12.45
2022-12-15T01:37:43.280Z,13.73
2022-12-15T01:38:50.677Z,13.93
2022-12-15T01:40:14.672Z,13.50
2022-12-15T01:41:16.435Z,13.65
2022-12-15T01:42:18.406Z,13.63
2022-12-15T01:43:25.494Z,13.53
2022-12-15T01:44:27.228Z,13.23
2022-12-15T01:45:28.918Z,13.25
2022-12-15T01:46:30.753Z,14.25
2022-12-15T01:47:32.611Z,13.35
2022-12-15T01:48:52.063Z,13.95
2022-12-15T01:49:54.826Z,13.25
2022-12-15T01:51:28.812Z,13.50
2022-12-15T01:52:30.702Z,11.43
2022-12-15T01:53:37.815Z,11.13
2022-12-15T01:54:48.451Z,11.20
2022-12-15T01:55:51.152Z,11.15
2022-12-15T01:57:03.016Z,12.40
2022-12-15T01:58:08.943Z,12.40
2022-12-15T01:59:16.535Z,11.35
2022-12-15T02:00:18.434Z,12.32
2022-12-15T02:01:20.385Z,13.02
2022-12-15T02:02:26.170Z,13.52
2022-12-15T02:03:29.227Z,13.77
2022-12-15T02:04:33.487Z,13.13
2022-12-15T02:05:35.920Z,13.33
2022-12-15T02:06:37.802Z,12.77
2022-12-15T02:07:39.553Z,13.23
2022-12-15T02:08:44.377Z,14.10
2022-12-15T02:09:48.475Z,12.88
2022-12-15T02:11:04.923Z,13.93
2022-12-15T02:12:18.720Z,12.88
2022-12-15T02:13:34.817Z,12.95
2022-12-15T02:14:42.547Z,12.80
2022-12-15T02:15:54.571Z,11.88
2022-12-15T02:17:20.865Z,11.33
2022-12-15T02:18:41.565Z,11.75
2022-12-15T02:20:16.152Z,11.35
2022-12-15T02:21:39.147Z,11.35
2022-12-15T02:22:43.678Z,11.65
2022-12-15T02:24:06.075Z,12.00
2022-12-15T02:25:26.401Z,12.20
2022-12-15T02:26:53.041Z,11.95
2022-12-15T02:28:11.484Z,11.40
2022-12-15T02:29:41.170Z,11.82
2022-12-15T02:31:12.861Z,11.90
2022-12-15T02:32:21.880Z,11.13
2022-12-15T02:33:30.018Z,11.13
2022-12-15T02:34:46.877Z,11.88
2022-12-15T02:36:07.706Z,12.13
2022-12-15T02:37:32.462Z,12.07
2022-12-15T02:38:37.157Z,10.85
2022-12-15T02:39:38.949Z,12.80
2022-12-15T02:40:40.744Z,11.93
2022-12-15T02:41:45.069Z,11.65
2022-12-15T02:42:52.698Z,12.60
2022-12-15T02:43:54.457Z,12.23
2022-12-15T02:45:04.171Z,12.50
2022-12-15T02:46:35.397Z,12.02
2022-12-15T02:47:46.329Z,11.07
2022-12-15T02:49:22.560Z,12.15
2022-12-15T02:50:24.388Z,11.20
2022-12-15T02:52:10.252Z,12.15
2022-12-15T02:53:26.659Z,11.35
2022-12-15T02:54:53.085Z,10.50
2022-12-15T02:56:16.216Z,11.40
2022-12-15T02:57:36.501Z,12.57
2022-12-15T02:58:54.454Z,11.50
2022-12-15T03:00:04.973Z,12.13
2022-12-15T03:01:35.958Z,11.95
2022-12-15T03:02:42.542Z,11.63
2022-12-15T03:03:45.493Z,11.05
2022-12-15T03:04:47.377Z,11.60
2022-12-15T03:05:55.198Z,12.68
2022-12-15T03:07:04.251Z,12.40
2022-12-15T03:08:06.042Z,12.57
2022-12-15T03:09:07.760Z,12.68
2022-12-15T03:10:11.772Z,12.70
2022-12-15T03:11:13.515Z,12.25
2022-12-15T03:12:15.244Z,13.57
2022-12-15T03:13:17.019Z,13.27
2022-12-15T03:14:18.857Z,13.20
2022-12-15T03:15:21.320Z,13.57
2022-12-15T03:16:23.327Z,13.90
2022-12-15T03:17:25.114Z,13.18
2022-12-15T03:18:27.174Z,13.63
2022-12-15T03:19:28.884Z,13.60
2022-12-15T03:20:30.624Z,13.05
2022-12-15T03:21:32.405Z,13.27
2022-12-15T03:22:34.191Z,12.90
2022-12-15T03:23:36.141Z,13.35
2022-12-15T03:24:37.875Z,12.02
2022-12-15T03:25:39.607Z,13.27
2022-12-15T03:26:41.396Z,11.95
2022-12-15T03:27:44.291Z,12.15
2022-12-15T03:28:46.072Z,10.90
2022-12-15T03:29:47.826Z,11.10
2022-12-15T03:30:50.622Z,10.85
2022-12-15T03:31:52.792Z,11.27
2022-12-15T03:32:54.632Z,11.25
2022-12-15T03:33:56.481Z,11.63
2022-12-15T03:34:58.226Z,11.18
2022-12-15T03:36:00.087Z,11.25
2022-12-15T03:37:01.818Z,11.18
2022-12-15T03:38:03.575Z,11.55
2022-12-15T03:39:05.502Z,11.43
2022-12-15T03:40:07.854Z,10.90
2022-12-15T03:41:09.637Z,11.50
2022-12-15T03:42:11.377Z,9.27
2022-12-15T03:43:13.152Z,10.45
2022-12-15T03:44:14.971Z,10.32
2022-12-15T03:45:18.804Z,10.98
2022-12-15T03:46:20.700Z,10.00
2022-12-15T03:47:22.552Z,11.13
2022-12-15T03:48:24.332Z,10.98
2022-12-15T03:49:26.082Z,11.10
2022-12-15T03:50:29.244Z,10.70
2022-12-15T03:51:31.337Z,10.93
2022-12-15T03:52:33.073Z,10.60
2022-12-15T03:53:34.970Z,10.57
2022-12-15T03:54:36.731Z,10.70
2022-12-15T03:55:38.609Z,10.68
2022-12-15T03:56:40.419Z,10.70
2022-12-15T03:57:42.184Z,10.70
2022-12-15T03:58:44.185Z,11.05
2022-12-15T03:59:45.947Z,10.10
2022-12-15T04:00:47.719Z,10.55
2022-12-15T04:01:49.694Z,11.38
2022-12-15T04:02:52.720Z,10.55
2022-12-15T04:04:00.271Z,11.07
2022-12-15T04:05:02.779Z,11.23
2022-12-15T04:06:04.719Z,10.68
2022-12-15T04:07:06.424Z,10.45
2022-12-15T04:08:08.170Z,11.10
2022-12-15T04:09:09.981Z,10.82
2022-12-15T04:10:12.347Z,10.80
2022-12-15T04:11:14.139Z,11.00
2022-12-15T04:12:15.910Z,10.95
2022-12-15T04:13:17.659Z,10.20
2022-12-15T04:14:19.354Z,11.90
2022-12-15T04:15:21.078Z,11.40
2022-12-15T04:16:22.919Z,10.82
2022-12-15T04:17:24.798Z,10.50
2022-12-15T04:18:26.549Z,11.60
2022-12-15T04:19:46.931Z,9.82
2022-12-15T04:20:50.239Z,8.60
2022-12-15T04:21:52.197Z,10.38
2022-12-15T04:22:53.928Z,9.35
2022-12-15T04:24:14.316Z,10.07
2022-12-15T04:25:36.878Z,11.05
2022-12-15T04:26:57.441Z,9.50
2022-12-15T04:28:17.928Z,9.57
2022-12-15T04:29:38.331Z,8.85
2022-12-15T04:31:04.365Z,10.18
2022-12-15T04:32:24.674Z,9.38
2022-12-15T04:33:45.318Z,8.93
2022-12-15T04:35:05.943Z,9.52
2022-12-15T04:36:30.448Z,10.35
2022-12-15T04:37:51.008Z,10.60
2022-12-15T04:39:11.470Z,11.85
2022-12-15T04:40:31.868Z,11.75
2022-12-15T04:41:52.637Z,11.50
2022-12-15T04:43:13.007Z,11.85
2022-12-15T04:44:33.481Z,11.45
2022-12-15T04:45:54.012Z,10.02
2022-12-15T04:47:14.601Z,9.47
2022-12-15T04:48:35.000Z,9.32
2022-12-15T04:49:55.519Z,10.07
2022-12-15T04:51:16.026Z,10.38
2022-12-15T04:52:36.425Z,9.40
2022-12-15T04:53:56.917Z,9.18
2022-12-15T04:55:17.329Z,9.35
2022-12-15T04:56:37.997Z,8.80
2022-12-15T04:57:58.567Z,9.20
2022-12-15T04:59:19.545Z,8.95
2022-12-15T05:00:39.890Z,9.10
2022-12-15T05:02:00.925Z,9.05
2022-12-15T05:03:25.592Z,8.50
2022-12-15T05:04:46.224Z,8.95
2022-12-15T05:06:06.565Z,6.93
2022-12-15T05:07:26.974Z,8.55
2022-12-15T05:08:47.473Z,8.63
2022-12-15T05:10:14.907Z,7.97
2022-12-15T05:11:35.538Z,9.05
2022-12-15T05:12:55.913Z,8.98
2022-12-15T05:14:16.477Z,8.60
2022-12-15T05:15:37.074Z,8.63
2022-12-15T05:16:57.365Z,8.25
2022-12-15T05:18:17.594Z,8.30
2022-12-15T05:19:38.314Z,8.07
2022-12-15T05:20:58.803Z,8.40
2022-12-15T05:22:19.242Z,8.52
2022-12-15T05:23:39.815Z,8.52
2022-12-15T05:25:00.340Z,9.32
2022-12-15T05:26:20.823Z,8.07
2022-12-15T05:27:41.315Z,8.17
2022-12-15T05:29:01.893Z,8.20
2022-12-15T05:30:22.794Z,8.52
2022-12-15T05:31:43.342Z,8.82
2022-12-15T05:32:45.041Z,7.70
2022-12-15T05:33:46.770Z,7.82
2022-12-15T05:34:48.502Z,8.13
2022-12-15T05:35:50.274Z,8.93
2022-12-15T05:36:53.476Z,8.73
2022-12-15T05:37:55.197Z,8.02
2022-12-15T05:38:56.929Z,8.67
2022-12-15T05:39:58.716Z,8.10
2022-12-15T05:41:00.501Z,8.45
2022-12-15T05:42:02.264Z,7.53
2022-12-15T05:43:04.203Z,8.85
2022-12-15T05:44:06.201Z,8.38
2022-12-15T05:45:08.488Z,9.27
2022-12-15T05:46:10.298Z,8.65
2022-12-15T05:47:12.312Z,7.68
2022-12-15T05:48:14.637Z,6.78
2022-12-15T05:49:17.626Z,7.05
2022-12-15T05:50:20.010Z,7.38
2022-12-15T05:51:21.980Z,8.20
2022-12-15T05:52:23.734Z,8.05
2022-12-15T05:53:25.435Z,8.10
2022-12-15T05:54:27.202Z,7.28
2022-12-15T05:55:29.828Z,7.95
2022-12-15T05:56:31.533Z,7.60
2022-12-15T05:57:33.267Z,7.95
2022-12-15T05:58:38.730Z,7.60
2022-12-15T05:59:44.899Z,8.07
2022-12-15T06:00:46.650Z,8.07
2022-12-15T06:01:48.553Z,8.38
2022-12-15T06:02:50.592Z,7.37
2022-12-15T06:03:52.659Z,7.82
2022-12-15T06:04:54.493Z,7.38
2022-12-15T06:05:56.829Z,8.52
2022-12-15T06:06:58.627Z,8.52
2022-12-15T06:08:00.939Z,7.55
2022-12-15T06:09:03.576Z,8.48
2022-12-15T06:10:06.149Z,8.43
2022-12-15T06:11:10.531Z,7.63
2022-12-15T06:12:12.418Z,7.75
2022-12-15T06:13:14.375Z,8.35
2022-12-15T06:14:16.241Z,7.60
2022-12-15T06:15:17.965Z,7.78
2022-12-15T06:16:22.118Z,7.18
2022-12-15T06:17:23.951Z,7.30
2022-12-15T06:18:29.193Z,7.85
2022-12-15T06:19:30.926Z,7.23
2022-12-15T06:20:32.691Z,7.93
2022-12-15T06:21:36.033Z,6.80
2022-12-15T06:22:37.755Z,6.78
2022-12-15T06:23:40.618Z,7.10
2022-12-15T06:24:42.356Z,7.97
2022-12-15T06:25:44.163Z,6.43
2022-12-15T06:26:46.196Z,7.68
2022-12-15T06:27:51.480Z,7.93
2022-12-15T06:28:56.154Z,6.90
2022-12-15T06:29:57.853Z,5.47
2022-12-15T06:31:04.179Z,7.18
2022-12-15T06:32:05.988Z,7.25
2022-12-15T06:33:07.732Z,7.93
2022-12-15T06:34:13.047Z,8.07
2022-12-15T06:35:14.899Z,7.97
2022-12-15T06:36:17.787Z,8.52
2022-12-15T06:37:19.564Z,7.93
2022-12-15T06:38:21.313Z,7.28
2022-12-15T06:39:23.213Z,7.68
2022-12-15T06:40:24.923Z,7.60
2022-12-15T06:41:26.950Z,6.88
2022-12-15T06:42:28.751Z,6.90
2022-12-15T06:43:32.250Z,7.30
2022-12-15T06:44:34.209Z,7.53
2022-12-15T06:45:36.021Z,7.22
2022-12-15T06:46:37.823Z,7.53
2022-12-15T06:47:39.630Z,7.38
2022-12-15T06:48:44.892Z,7.28
2022-12-15T06:49:46.631Z,7.72
2022-12-15T06:50:50.236Z,9.70
2022-12-15T06:51:52.195Z,13.93
2022-12-15T06:52:53.936Z,14.90
2022-12-15T06:53:56.282Z,14.15
2022-12-15T06:54:58.244Z,12.38
2022-12-15T06:56:05.797Z,11.67
2022-12-15T06:57:07.513Z,9.18
2022-12-15T06:58:10.162Z,9.65
2022-12-15T06:59:12.594Z,8.77
2022-12-15T07:00:15.431Z,8.30
2022-12-15T07:01:18.513Z,8.95
2022-12-15T07:02:26.848Z,7.77
2022-12-15T07:03:31.319Z,6.80
2022-12-15T07:04:33.699Z,7.35
2022-12-15T07:05:35.507Z,8.98
2022-12-15T07:06:38.449Z,8.27
2022-12-15T07:07:40.257Z,9.30
2022-12-15T07:08:42.553Z,9.95
2022-12-15T07:09:44.333Z,10.13
2022-12-15T07:10:46.110Z,9.93
2022-12-15T07:11:50.330Z,10.55
2022-12-15T07:12:52.041Z,10.45
2022-12-15T07:13:54.651Z,10.65
2022-12-15T07:14:56.375Z,10.45
2022-12-15T07:16:06.530Z,9.45
2022-12-15T07:17:10.849Z,11.03
2022-12-15T07:18:12.584Z,10.60
2022-12-15T07:19:14.425Z,9.57
2022-12-15T07:20:16.462Z,10.20
2022-12-15T07:21:18.209Z,9.77
2022-12-15T07:22:20.922Z,10.05
2022-12-15T07:23:39.705Z,10.35
2022-12-15T07:24:44.663Z,9.73
2022-12-15T07:25:46.428Z,9.52
2022-12-15T07:26:49.050Z,9.20
2022-12-15T07:27:50.848Z,9.57
2022-12-15T07:28:53.802Z,9.02
2022-12-15T07:29:55.903Z,10.63
2022-12-15T07:31:06.043Z,10.52
2022-12-15T07:32:07.874Z,9.13
2022-12-15T07:33:09.623Z,10.95
2022-12-15T07:34:11.839Z,10.93
2022-12-15T07:35:13.575Z,9.98
2022-12-15T07:36:15.832Z,10.77
2022-12-15T07:37:17.611Z,10.53
2022-12-15T07:38:19.339Z,10.63
2022-12-15T07:39:21.349Z,9.45
2022-12-15T07:40:23.159Z,9.52
2022-12-15T07:41:24.937Z,9.80
2022-12-15T07:42:29.729Z,10.20
2022-12-15T07:43:32.851Z,9.82
2022-12-15T07:44:35.086Z,9.77
2022-12-15T07:45:36.843Z,10.23
2022-12-15T07:46:38.684Z,10.50
2022-12-15T07:47:40.963Z,9.53
2022-12-15T07:48:42.969Z,9.48
2022-12-15T07:49:44.918Z,9.38
2022-12-15T07:50:47.275Z,10.93
2022-12-15T07:51:52.297Z,10.25
2022-12-15T07:52:54.718Z,10.45
2022-12-15T07:53:56.442Z,11.13
2022-12-15T07:54:58.192Z,10.73
2022-12-15T07:56:07.504Z,11.30
2022-12-15T07:57:10.044Z,11.02
2022-12-15T07:58:11.793Z,11.90
2022-12-15T07:59:13.532Z,11.63
2022-12-15T08:00:16.163Z,11.40
2022-12-15T08:01:18.106Z,11.38
2022-12-15T08:02:20.059Z,12.18
2022-12-15T08:03:22.179Z,11.63
2022-12-15T08:04:24.052Z,11.57
2022-12-15T08:05:25.773Z,11.82
2022-12-15T08:06:27.648Z,11.55
2022-12-15T08:07:30.627Z,12.00
2022-12-15T08:08:33.337Z,12.27
2022-12-15T08:09:35.830Z,11.90
2022-12-15T08:10:40.699Z,12.23
2022-12-15T08:11:43.090Z,11.65
2022-12-15T08:12:44.817Z,11.50
2022-12-15T08:14:04.152Z,12.45
2022-12-15T08:15:08.093Z,10.50
2022-12-15T08:16:10.865Z,11.95
2022-12-15T08:17:13.134Z,13.00
2022-12-15T08:18:14.832Z,12.55
2022-12-15T08:19:17.717Z,13.73
2022-12-15T08:20:19.434Z,13.02
2022-12-15T08:21:21.303Z,12.85
2022-12-15T08:22:23.032Z,13.13
2022-12-15T08:23:24.732Z,12.35
2022-12-15T08:24:26.463Z,13.52
2022-12-15T08:25:28.753Z,10.32
2022-12-15T08:26:31.476Z,13.73
2022-12-15T08:27:33.507Z,12.70
2022-12-15T08:28:36.506Z,12.60
2022-12-15T08:29:53.545Z,13.07
2022-12-15T08:30:55.273Z,11.73
2022-12-15T08:31:57.062Z,13.98
2022-12-15T08:32:58.896Z,13.05
2022-12-15T08:34:01.991Z,13.60
2022-12-15T08:35:03.832Z,11.65
2022-12-15T08:36:08.449Z,12.93
2022-12-15T08:37:10.968Z,12.75
2022-12-15T08:38:12.703Z,12.50
2022-12-15T08:39:14.450Z,12.65
2022-12-15T08:40:16.345Z,13.00
2022-12-15T08:41:22.964Z,13.15
2022-12-15T08:42:24.733Z,12.30
2022-12-15T08:43:26.465Z,13.00
2022-12-15T08:44:28.194Z,13.80
2022-12-15T08:45:29.970Z,13.68
2022-12-15T08:46:36.611Z,14.15
2022-12-15T08:47:38.927Z,12.57
2022-12-15T08:48:40.693Z,13.43
2022-12-15T08:49:42.459Z,13.70
2022-12-15T08:50:45.635Z,14.13
2022-12-15T08:51:47.411Z,15.30
2022-12-15T08:53:21.424Z,13.85
2022-12-15T08:54:13.720Z,13.02
2022-12-15T08:55:20.801Z,13.70
2022-12-15T08:56:25.513Z,13.32
2022-12-15T08:57:27.376Z,11.82
2022-12-15T08:58:29.157Z,14.13
2022-12-15T08:59:30.914Z,13.90
2022-12-15T09:00:32.756Z,14.05
2022-12-15T09:01:39.211Z,13.60
2022-12-15T09:02:41.119Z,13.75
2022-12-15T09:03:43.201Z,13.82
2022-12-15T09:04:45.422Z,13.70
2022-12-15T09:05:47.311Z,12.70
2022-12-15T09:06:51.749Z,13.68
2022-12-15T09:07:59.405Z,12.48
2022-12-15T09:09:09.899Z,11.38
2022-12-15T09:10:11.655Z,11.70
2022-12-15T09:11:13.457Z,10.98
2022-12-15T09:12:15.250Z,11.23
2022-12-15T09:13:16.983Z,11.48
2022-12-15T09:14:22.762Z,11.38
2022-12-15T09:15:59.854Z,10.85
2022-12-15T09:16:50.930Z,10.55
2022-12-15T09:17:52.736Z,10.93
2022-12-15T09:18:56.913Z,10.65
2022-12-15T09:19:58.647Z,10.18
2022-12-15T09:21:06.435Z,13.13
2022-12-15T09:22:08.159Z,12.32
2022-12-15T09:23:09.877Z,10.77
2022-12-15T09:24:22.128Z,10.52
2022-12-15T09:25:28.013Z,10.77
2022-12-15T09:26:32.278Z,10.90
2022-12-15T09:27:34.957Z,9.98
2022-12-15T09:28:38.148Z,11.05
2022-12-15T09:29:40.609Z,10.27
2022-12-15T09:30:42.417Z,12.15
2022-12-15T09:31:46.233Z,10.37
2022-12-15T09:32:47.985Z,10.23
2022-12-15T09:33:51.989Z,9.68
2022-12-15T09:34:54.352Z,9.23
2022-12-15T09:35:56.164Z,9.95
2022-12-15T09:36:59.593Z,11.18
2022-12-15T09:38:01.366Z,10.75
2022-12-15T09:39:03.193Z,12.07
2022-12-15T09:40:06.607Z,11.02
2022-12-15T09:41:12.722Z,11.18
2022-12-15T09:42:26.827Z,11.33
2022-12-15T09:43:40.074Z,12.00
2022-12-15T09:44:45.093Z,10.52
2022-12-15T09:45:52.285Z,10.88
2022-12-15T09:47:08.908Z,11.73
2022-12-15T09:48:18.899Z,11.25
2022-12-15T09:49:46.046Z,10.57
2022-12-15T09:50:51.069Z,9.88
2022-12-15T09:52:11.022Z,10.20
2022-12-15T09:53:45.481Z,9.68
2022-12-15T09:54:41.729Z,9.30
2022-12-15T09:55:48.818Z,9.93
2022-12-15T09:56:56.714Z,10.32
2022-12-15T09:58:06.019Z,10.68
2022-12-15T09:59:31.069Z,10.20
2022-12-15T10:00:37.232Z,9.70
2022-12-15T10:01:45.833Z,13.25
2022-12-15T10:03:05.738Z,14.13
2022-12-15T10:04:35.206Z,13.93
2022-12-15T10:07:20.685Z,12.30
2022-12-15T10:08:23.872Z,11.52
2022-12-15T10:09:30.329Z,11.85
2022-12-15T10:10:41.423Z,11.95
2022-12-15T10:12:00.786Z,12.82
2022-12-15T10:13:09.709Z,12.40
2022-12-15T10:14:26.411Z,12.98
2022-12-15T10:15:32.694Z,14.60
2022-12-15T10:16:58.818Z,13.18
2022-12-15T10:18:22.583Z,12.73
2022-12-15T10:19:36.760Z,12.27
2022-12-15T10:20:38.576Z,12.80
2022-12-15T10:21:40.844Z,16.10
2022-12-15T10:22:42.596Z,15.95
2022-12-15T10:23:44.389Z,11.43
2022-12-15T10:25:15.599Z,12.60
2022-12-15T10:26:32.318Z,14.15
2022-12-15T10:27:45.256Z,12.07
2022-12-15T10:28:51.264Z,11.50
2022-12-15T10:30:12.363Z,10.82
2022-12-15T10:31:25.841Z,9.97
2022-12-15T10:32:51.269Z,11.55
2022-12-15T10:34:11.193Z,10.35
2022-12-15T10:35:22.271Z,14.32
2022-12-15T10:36:24.228Z,24.05
2022-12-15T10:37:25.945Z,26.55
2022-12-15T10:38:37.843Z,28.33
2022-12-15T10:39:42.247Z,22.98
2022-12-15T10:41:01.031Z,22.88
2022-12-15T10:42:14.239Z,18.13
2022-12-15T10:43:35.842Z,17.07
2022-12-15T10:44:40.261Z,13.13
2022-12-15T10:45:42.627Z,12.35
2022-12-15T10:46:44.769Z,11.90
2022-12-15T10:47:58.909Z,11.30
2022-12-15T10:49:06.615Z,11.90
2022-12-15T10:50:24.761Z,10.73
2022-12-15T10:51:31.756Z,9.77
2022-12-15T10:52:36.759Z,12.68
2022-12-15T10:53:45.517Z,11.18
2022-12-15T10:54:54.467Z,13.27
2022-12-15T10:56:06.049Z,11.70
2022-12-15T10:57:31.604Z,12.43
2022-12-15T10:58:47.010Z,12.52
2022-12-15T10:59:52.485Z,11.15
2022-12-15T11:01:14.649Z,12.50
2022-12-15T11:02:26.007Z,10.80
2022-12-15T11:03:28.429Z,10.07
2022-12-15T11:04:32.490Z,12.07
2022-12-15T11:05:35.947Z,11.43
2022-12-15T11:06:42.236Z,12.13
2022-12-15T11:07:48.351Z,12.85
2022-12-15T11:08:52.999Z,12.02
2022-12-15T11:10:00.988Z,10.95
2022-12-15T11:11:26.158Z,10.88
2022-12-15T11:12:50.481Z,9.82
2022-12-15T11:14:10.869Z,9.70
2022-12-15T11:15:21.720Z,10.25
2022-12-15T11:16:23.475Z,10.00
2022-12-15T11:17:25.260Z,9.98
2022-12-15T11:18:41.366Z,10.17
2022-12-15T11:20:01.880Z,10.05
2022-12-15T11:21:41.302Z,11.43
2022-12-15T11:23:11.883Z,10.43
2022-12-15T11:24:18.114Z,9.82
2022-12-15T11:25:59.195Z,10.75
2022-12-15T11:27:24.827Z,8.65
2022-12-15T11:28:50.678Z,10.02
2022-12-15T11:30:02.914Z,8.52
2022-12-15T11:31:27.697Z,9.63
2022-12-15T11:32:33.970Z,10.00
2022-12-15T11:33:36.081Z,9.60
2022-12-15T11:34:42.034Z,9.52
2022-12-15T11:35:46.576Z,10.25
2022-12-15T11:37:14.981Z,9.32
2022-12-15T11:38:22.529Z,8.80
2022-12-15T11:39:53.142Z,9.20
2022-12-15T11:41:00.896Z,8.88
2022-12-15T11:42:08.190Z,9.23
2022-12-15T11:43:18.427Z,9.52
2022-12-15T11:44:37.804Z,9.10
2022-12-15T11:45:54.426Z,8.55
2022-12-15T11:47:27.814Z,8.75
2022-12-15T11:48:41.097Z,9.15
2022-12-15T11:50:03.408Z,8.48
2022-12-15T11:51:14.386Z,9.05
2022-12-15T11:52:23.513Z,8.57
2022-12-15T11:53:43.507Z,9.73
2022-12-15T11:54:55.456Z,9.15
2022-12-15T11:56:08.460Z,9.43
2022-12-15T11:57:40.433Z,9.97
2022-12-15T11:58:56.935Z,9.30
2022-12-15T12:00:17.558Z,8.95
2022-12-15T12:01:36.649Z,9.25
2022-12-15T12:02:59.545Z,8.85
2022-12-15T12:04:13.531Z,8.75
2022-12-15T12:05:37.057Z,8.18
2022-12-15T12:06:45.437Z,8.93
2022-12-15T12:07:52.558Z,9.00
2022-12-15T12:09:08.240Z,8.90
2022-12-15T12:10:21.275Z,8.53
2022-12-15T12:11:43.836Z,9.73
2022-12-15T12:13:29.601Z,9.40
2022-12-15T12:14:36.173Z,10.10
2022-12-15T12:15:49.675Z,9.02
2022-12-15T12:17:13.657Z,9.82
2022-12-15T12:18:25.069Z,8.63
2022-12-15T12:19:50.958Z,10.05
2022-12-15T12:21:01.143Z,10.15
2022-12-15T12:22:21.869Z,9.70
2022-12-15T12:23:39.868Z,10.47
2022-12-15T12:24:51.022Z,9.80
2022-12-15T12:26:05.697Z,9.32
2022-12-15T12:27:36.246Z,9.18
2022-12-15T12:28:54.370Z,9.27
2022-12-15T12:30:13.100Z,9.38
2022-12-15T12:31:42.530Z,9.48
2022-12-15T12:33:02.611Z,9.05
2022-12-15T12:34:14.179Z,9.27
2022-12-15T12:35:30.692Z,8.88
2022-12-15T12:36:34.347Z,9.40
2022-12-15T12:37:36.009Z,9.38
2022-12-15T12:39:10.459Z,9.88
2022-12-15T12:40:26.774Z,8.98
2022-12-15T12:41:41.030Z,9.65
2022-12-15T12:42:56.412Z,9.50
2022-12-15T12:44:03.083Z,9.45
2022-12-15T12:45:05.401Z,8.88
2022-12-15T12:46:34.183Z,8.70
2022-12-15T12:47:40.797Z,8.38
2022-12-15T12:48:50.867Z,8.97
2022-12-15T12:50:06.582Z,8.60
2022-12-15T12:51:22.138Z,8.82
2022-12-15T12:52:31.811Z,8.20
2022-12-15T12:53:35.042Z,8.50
2022-12-15T12:54:37.040Z,9.88
2022-12-15T12:55:42.940Z,15.73
2022-12-15T12:56:50.574Z,11.63
2022-12-15T12:57:53.932Z,11.55
2022-12-15T12:58:55.900Z,9.82
2022-12-15T13:00:18.219Z,9.27
2022-12-15T13:01:33.022Z,8.43
2022-12-15T13:02:35.391Z,9.13
2022-12-15T13:03:42.039Z,9.95
2022-12-15T13:05:01.684Z,8.30
2022-12-15T13:06:35.154Z,8.45
2022-12-15T13:07:40.822Z,8.25
2022-12-15T13:08:51.070Z,9.02
2022-12-15T13:10:19.496Z,8.40
2022-12-15T13:11:49.428Z,9.25
2022-12-15T13:12:59.205Z,9.20
2022-12-15T13:14:02.214Z,9.25
2022-12-15T13:15:12.734Z,9.98
2022-12-15T13:16:27.167Z,7.70
2022-12-15T13:17:32.752Z,8.50
2022-12-15T13:19:04.569Z,8.23
2022-12-15T13:20:17.458Z,7.50
2022-12-15T13:21:43.984Z,8.10
2022-12-15T13:22:45.921Z,7.20
2022-12-15T13:23:50.866Z,7.90
2022-12-15T13:24:52.715Z,7.53
2022-12-15T13:26:00.410Z,8.35
2022-12-15T13:27:17.074Z,7.55
2022-12-15T13:28:40.068Z,8.05
2022-12-15T13:30:09.640Z,7.75
2022-12-15T13:31:17.869Z,7.90
2022-12-15T13:32:54.472Z,7.30
2022-12-15T13:34:03.105Z,7.35
2022-12-15T13:35:26.764Z,7.82
2022-12-15T13:36:38.313Z,8.23
2022-12-15T13:37:59.390Z,7.57
2022-12-15T13:39:02.463Z,6.82
2022-12-15T13:40:33.521Z,7.05
2022-12-15T13:41:36.157Z,7.03
2022-12-15T13:44:18.945Z,7.57
2022-12-15T13:45:34.861Z,8.02
2022-12-15T13:46:48.395Z,7.72
2022-12-15T13:47:56.652Z,7.40
2022-12-15T13:49:37.844Z,7.40
2022-12-15T13:50:51.339Z,6.93
2022-12-15T13:52:02.246Z,7.43
2022-12-15T13:53:19.736Z,7.50
2022-12-15T13:54:28.911Z,7.72
2022-12-15T13:55:39.371Z,7.57
2022-12-15T13:56:55.643Z,7.53
2022-12-15T13:58:07.629Z,7.63
2022-12-15T13:59:43.059Z,8.55
2022-12-15T14:01:04.367Z,10.20
2022-12-15T14:02:25.865Z,8.13
2022-12-15T14:03:27.805Z,7.17
2022-12-15T14:04:29.627Z,6.93
2022-12-15T14:05:31.380Z,7.15
2022-12-15T14:06:46.744Z,7.70
2022-12-15T14:07:56.162Z,7.30
2022-12-15T14:08:57.959Z,7.50
2022-12-15T14:10:01.447Z,6.75
2022-12-15T14:11:22.385Z,7.15
2022-12-15T14:12:25.216Z,7.22
2022-12-15T14:13:33.934Z,7.63
2022-12-15T14:14:42.567Z,7.40
2022-12-15T14:16:15.781Z,7.10
2022-12-15T14:17:19.255Z,6.18
2022-12-15T14:18:37.339Z,6.63
2022-12-15T14:19:44.715Z,7.28
2022-12-15T14:20:47.250Z,7.03
2022-12-15T14:21:56.336Z,6.78
2022-12-15T14:22:59.135Z,7.72
2022-12-15T14:24:37.042Z,6.97
2022-12-15T14:25:27.920Z,6.90
2022-12-15T14:26:31.740Z,7.50
2022-12-15T14:27:34.061Z,7.03
2022-12-15T14:28:39.181Z,7.18
2022-12-15T14:29:40.880Z,6.97
2022-12-15T14:30:42.674Z,7.45
2022-12-15T14:31:49.463Z,7.43
2022-12-15T14:33:13.823Z,7.35
2022-12-15T14:34:23.344Z,6.80
2022-12-15T14:35:27.567Z,7.22
2022-12-15T14:36:30.699Z,7.63
2022-12-15T14:37:33.584Z,8.00
2022-12-15T14:38:41.530Z,6.95
2022-12-15T14:39:50.134Z,7.20
2022-12-15T14:40:55.833Z,7.97
2022-12-15T14:41:59.047Z,8.55
2022-12-15T14:43:00.938Z,7.40
2022-12-15T14:44:36.750Z,7.78
2022-12-15T14:45:32.510Z,7.95
2022-12-15T14:46:34.866Z,7.97
2022-12-15T14:47:37.308Z,8.05
2022-12-15T14:48:42.927Z,7.67
2022-12-15T14:49:45.763Z,8.55
2022-12-15T14:50:48.982Z,8.68
2022-12-15T14:51:57.052Z,7.88
2022-12-15T14:53:06.166Z,8.82
2022-12-15T14:54:33.442Z,8.50
2022-12-15T14:55:38.143Z,8.43
2022-12-15T14:56:40.137Z,8.73
2022-12-15T14:57:45.193Z,8.82
2022-12-15T14:59:03.758Z,7.85
2022-12-15T15:00:36.343Z,7.83
2022-12-15T15:01:58.226Z,6.90
2022-12-15T15:03:11.588Z,7.65
2022-12-15T15:03:18.631Z,7.35
2022-12-15T15:04:34.166Z,6.55
2022-12-15T15:05:39.294Z,7.25
2022-12-15T15:06:41.187Z,7.85
2022-12-15T15:07:45.553Z,7.18
2022-12-15T15:08:52.864Z,7.72
2022-12-15T15:09:55.345Z,9.18
2022-12-15T15:11:00.451Z,8.02
2022-12-15T15:12:03.589Z,8.87